sensor_id;sensor_type;location;lat;lon;timestamp;temperature;humidity
57108;DHT22;42987;52.916;6.542;2024-03-17T00:00:23;3.80;99.90
57108;DHT22;42987;52.916;6.542;2024-03-17T00:02:49;3.80;99.90
57108;DHT22;42987;52.916;6.542;2024-03-17T00:05:15;3.80;99.90
57108;DHT22;42987;52.916;6.542;2024-03-17T00:07:41;3.80;99.90
57108;DHT22;42987;52.916;6.542;2024-03-17T00:10:07;3.70;99.90
57108;DHT22;42987;52.916;6.542;2024-03-17T00:12:33;3.70;99.90
57108;DHT22;42987;52.916;6.542;2024-03-17T00:14:59;3.70;99.90
57108;DHT22;42987;52.916;6.542;2024-03-17T00:17:25;3.70;99.90
57108;DHT22;42987;52.916;6.542;2024-03-17T00:19:51;3.80;99.90
57108;DHT22;42987;52.916;6.542;2024-03-17T00:22:17;3.80;99.90
57108;DHT22;42987;52.916;6.542;2024-03-17T00:24:43;3.70;99.90
57108;DHT22;42987;52.916;6.542;2024-03-17T00:27:09;3.60;99.90
57108;DHT22;42987;52.916;6.542;2024-03-17T00:29:35;3.60;99.90
57108;DHT22;42987;52.916;6.542;2024-03-17T00:32:01;3.50;99.90
57108;DHT22;42987;52.916;6.542;2024-03-17T00:34:27;3.40;99.90
57108;DHT22;42987;52.916;6.542;2024-03-17T00:36:52;3.30;99.90
57108;DHT22;42987;52.916;6.542;2024-03-17T00:39:18;3.30;99.90
57108;DHT22;42987;52.916;6.542;2024-03-17T00:41:45;3.30;99.90
57108;DHT22;42987;52.916;6.542;2024-03-17T00:44:10;3.30;99.90
57108;DHT22;42987;52.916;6.542;2024-03-17T00:46:36;3.30;99.90
57108;DHT22;42987;52.916;6.542;2024-03-17T00:49:02;3.30;99.90
57108;DHT22;42987;52.916;6.542;2024-03-17T00:51:27;3.30;99.90
57108;DHT22;42987;52.916;6.542;2024-03-17T00:53:53;3.30;99.90
57108;DHT22;42987;52.916;6.542;2024-03-17T00:56:22;3.30;99.90
57108;DHT22;42987;52.916;6.542;2024-03-17T00:58:48;3.30;99.90
57108;DHT22;42987;52.916;6.542;2024-03-17T01:01:17;3.20;99.90
57108;DHT22;42987;52.916;6.542;2024-03-17T01:03:45;3.20;99.90
57108;DHT22;42987;52.916;6.542;2024-03-17T01:06:11;3.10;99.90
57108;DHT22;42987;52.916;6.542;2024-03-17T01:08:37;3.10;99.90
57108;DHT22;42987;52.916;6.542;2024-03-17T01:11:02;3.10;99.90
57108;DHT22;42987;52.916;6.542;2024-03-17T01:13:28;3.10;99.90
57108;DHT22;42987;52.916;6.542;2024-03-17T01:15:54;3.10;99.90
57108;DHT22;42987;52.916;6.542;2024-03-17T01:18:20;3.10;99.90
57108;DHT22;42987;52.916;6.542;2024-03-17T01:20:46;3.10;99.90
57108;DHT22;42987;52.916;6.542;2024-03-17T01:23:12;3.00;99.90
57108;DHT22;42987;52.916;6.542;2024-03-17T01:25:39;2.90;99.90
57108;DHT22;42987;52.916;6.542;2024-03-17T01:28:05;2.90;99.90
57108;DHT22;42987;52.916;6.542;2024-03-17T01:30:32;2.80;99.90
57108;DHT22;42987;52.916;6.542;2024-03-17T01:33:00;2.70;99.90
57108;DHT22;42987;52.916;6.542;2024-03-17T01:35:26;2.80;99.90
57108;DHT22;42987;52.916;6.542;2024-03-17T01:37:52;2.80;99.90
57108;DHT22;42987;52.916;6.542;2024-03-17T01:40:18;2.80;99.90
57108;DHT22;42987;52.916;6.542;2024-03-17T01:42:44;2.80;99.90
57108;DHT22;42987;52.916;6.542;2024-03-17T01:45:28;2.80;99.90
57108;DHT22;42987;52.916;6.542;2024-03-17T01:47:55;2.80;99.90
57108;DHT22;42987;52.916;6.542;2024-03-17T01:50:27;2.70;99.90
57108;DHT22;42987;52.916;6.542;2024-03-17T01:52:56;2.70;99.90
57108;DHT22;42987;52.916;6.542;2024-03-17T01:55:22;2.70;99.90
57108;DHT22;42987;52.916;6.542;2024-03-17T01:57:50;2.70;99.90
57108;DHT22;42987;52.916;6.542;2024-03-17T02:00:17;2.70;99.90
57108;DHT22;42987;52.916;6.542;2024-03-17T02:02:43;2.60;99.90
57108;DHT22;42987;52.916;6.542;2024-03-17T02:05:09;2.60;99.90
57108;DHT22;42987;52.916;6.542;2024-03-17T02:07:36;2.50;99.90
57108;DHT22;42987;52.916;6.542;2024-03-17T02:10:06;2.50;99.90
57108;DHT22;42987;52.916;6.542;2024-03-17T02:12:34;2.50;99.90
57108;DHT22;42987;52.916;6.542;2024-03-17T02:15:01;2.50;99.90
57108;DHT22;42987;52.916;6.542;2024-03-17T02:17:33;2.40;99.90
57108;DHT22;42987;52.916;6.542;2024-03-17T02:20:00;2.40;99.90
57108;DHT22;42987;52.916;6.542;2024-03-17T02:22:26;2.40;99.90
57108;DHT22;42987;52.916;6.542;2024-03-17T02:24:54;2.30;99.90
57108;DHT22;42987;52.916;6.542;2024-03-17T02:27:19;2.30;99.90
57108;DHT22;42987;52.916;6.542;2024-03-17T02:29:45;2.20;99.90
57108;DHT22;42987;52.916;6.542;2024-03-17T02:32:11;2.20;99.90
57108;DHT22;42987;52.916;6.542;2024-03-17T02:34:38;2.10;99.90
57108;DHT22;42987;52.916;6.542;2024-03-17T02:37:06;2.20;99.90
57108;DHT22;42987;52.916;6.542;2024-03-17T02:39:33;2.10;99.90
57108;DHT22;42987;52.916;6.542;2024-03-17T02:42:10;2.10;99.90
57108;DHT22;42987;52.916;6.542;2024-03-17T02:44:37;2.20;99.90
57108;DHT22;42987;52.916;6.542;2024-03-17T02:47:05;2.20;99.90
57108;DHT22;42987;52.916;6.542;2024-03-17T02:49:32;2.30;99.90
57108;DHT22;42987;52.916;6.542;2024-03-17T02:52:08;2.30;99.90
57108;DHT22;42987;52.916;6.542;2024-03-17T02:54:37;2.40;99.90
57108;DHT22;42987;52.916;6.542;2024-03-17T02:57:04;2.40;99.90
57108;DHT22;42987;52.916;6.542;2024-03-17T02:59:32;2.50;99.90
57108;DHT22;42987;52.916;6.542;2024-03-17T03:02:00;2.40;99.90
57108;DHT22;42987;52.916;6.542;2024-03-17T03:04:26;2.40;99.90
57108;DHT22;42987;52.916;6.542;2024-03-17T03:06:52;2.40;99.90
57108;DHT22;42987;52.916;6.542;2024-03-17T03:09:18;2.40;99.90
57108;DHT22;42987;52.916;6.542;2024-03-17T03:12:00;2.30;99.90
57108;DHT22;42987;52.916;6.542;2024-03-17T03:14:28;2.50;99.90
57108;DHT22;42987;52.916;6.542;2024-03-17T03:16:54;2.40;99.90
57108;DHT22;42987;52.916;6.542;2024-03-17T03:19:20;2.50;99.90
57108;DHT22;42987;52.916;6.542;2024-03-17T03:21:46;2.50;99.90
57108;DHT22;42987;52.916;6.542;2024-03-17T03:24:14;2.50;99.90
57108;DHT22;42987;52.916;6.542;2024-03-17T03:26:40;2.50;99.90
57108;DHT22;42987;52.916;6.542;2024-03-17T03:29:05;2.50;99.90
57108;DHT22;42987;52.916;6.542;2024-03-17T03:31:32;2.60;99.90
57108;DHT22;42987;52.916;6.542;2024-03-17T03:33:58;2.60;99.90
57108;DHT22;42987;52.916;6.542;2024-03-17T03:36:29;2.60;99.90
57108;DHT22;42987;52.916;6.542;2024-03-17T03:38:55;2.60;99.90
57108;DHT22;42987;52.916;6.542;2024-03-17T03:41:23;2.60;99.90
57108;DHT22;42987;52.916;6.542;2024-03-17T03:43:49;2.60;99.90
57108;DHT22;42987;52.916;6.542;2024-03-17T03:46:15;2.70;99.90
57108;DHT22;42987;52.916;6.542;2024-03-17T03:48:41;2.70;99.90
57108;DHT22;42987;52.916;6.542;2024-03-17T03:51:07;2.70;99.90
57108;DHT22;42987;52.916;6.542;2024-03-17T03:53:34;2.70;99.90
57108;DHT22;42987;52.916;6.542;2024-03-17T03:56:02;2.70;99.90
57108;DHT22;42987;52.916;6.542;2024-03-17T03:58:33;2.70;99.90
57108;DHT22;42987;52.916;6.542;2024-03-17T04:00:59;2.70;99.90
57108;DHT22;42987;52.916;6.542;2024-03-17T04:03:25;2.80;99.90
57108;DHT22;42987;52.916;6.542;2024-03-17T04:06:00;2.90;99.90
57108;DHT22;42987;52.916;6.542;2024-03-17T04:08:26;2.90;99.90
57108;DHT22;42987;52.916;6.542;2024-03-17T04:10:52;2.90;99.90
57108;DHT22;42987;52.916;6.542;2024-03-17T04:13:18;3.00;99.90
57108;DHT22;42987;52.916;6.542;2024-03-17T04:15:44;3.00;99.90
57108;DHT22;42987;52.916;6.542;2024-03-17T04:18:09;3.10;99.90
57108;DHT22;42987;52.916;6.542;2024-03-17T04:20:36;3.10;99.90
57108;DHT22;42987;52.916;6.542;2024-03-17T04:23:02;3.10;99.90
57108;DHT22;42987;52.916;6.542;2024-03-17T04:25:29;3.10;99.90
57108;DHT22;42987;52.916;6.542;2024-03-17T04:27:54;3.20;99.90
57108;DHT22;42987;52.916;6.542;2024-03-17T04:30:20;3.20;99.90
57108;DHT22;42987;52.916;6.542;2024-03-17T04:32:46;3.20;99.90
57108;DHT22;42987;52.916;6.542;2024-03-17T04:35:12;3.20;99.90
57108;DHT22;42987;52.916;6.542;2024-03-17T04:37:38;3.30;99.90
57108;DHT22;42987;52.916;6.542;2024-03-17T04:40:06;3.30;99.90
57108;DHT22;42987;52.916;6.542;2024-03-17T04:42:35;3.30;99.90
57108;DHT22;42987;52.916;6.542;2024-03-17T04:45:01;3.30;99.90
57108;DHT22;42987;52.916;6.542;2024-03-17T04:47:27;3.30;99.90
57108;DHT22;42987;52.916;6.542;2024-03-17T04:49:52;3.30;99.90
57108;DHT22;42987;52.916;6.542;2024-03-17T04:52:18;3.40;99.90
57108;DHT22;42987;52.916;6.542;2024-03-17T04:54:44;3.30;99.90
57108;DHT22;42987;52.916;6.542;2024-03-17T04:57:10;3.30;99.90
57108;DHT22;42987;52.916;6.542;2024-03-17T04:59:36;3.30;99.90
57108;DHT22;42987;52.916;6.542;2024-03-17T05:02:04;3.30;99.90
57108;DHT22;42987;52.916;6.542;2024-03-17T05:04:30;3.40;99.90
57108;DHT22;42987;52.916;6.542;2024-03-17T05:06:56;3.40;99.90
57108;DHT22;42987;52.916;6.542;2024-03-17T05:09:22;3.40;99.90
57108;DHT22;42987;52.916;6.542;2024-03-17T05:11:50;3.50;99.90
57108;DHT22;42987;52.916;6.542;2024-03-17T05:14:17;3.50;99.90
57108;DHT22;42987;52.916;6.542;2024-03-17T05:16:45;3.50;99.90
57108;DHT22;42987;52.916;6.542;2024-03-17T05:19:10;3.50;99.90
57108;DHT22;42987;52.916;6.542;2024-03-17T05:21:36;3.50;99.90
57108;DHT22;42987;52.916;6.542;2024-03-17T05:24:02;3.60;99.90
57108;DHT22;42987;52.916;6.542;2024-03-17T05:26:28;3.70;99.90
57108;DHT22;42987;52.916;6.542;2024-03-17T05:28:56;3.70;99.90
57108;DHT22;42987;52.916;6.542;2024-03-17T05:31:22;3.70;99.90
57108;DHT22;42987;52.916;6.542;2024-03-17T05:33:48;3.70;99.90
57108;DHT22;42987;52.916;6.542;2024-03-17T05:36:14;3.70;99.90
57108;DHT22;42987;52.916;6.542;2024-03-17T05:38:40;3.80;99.90
57108;DHT22;42987;52.916;6.542;2024-03-17T05:41:07;3.80;99.90
57108;DHT22;42987;52.916;6.542;2024-03-17T05:43:35;3.90;99.90
57108;DHT22;42987;52.916;6.542;2024-03-17T05:46:06;3.90;99.90
57108;DHT22;42987;52.916;6.542;2024-03-17T05:48:33;3.90;99.90
57108;DHT22;42987;52.916;6.542;2024-03-17T05:51:01;4.00;99.90
57108;DHT22;42987;52.916;6.542;2024-03-17T05:53:28;4.00;99.90
57108;DHT22;42987;52.916;6.542;2024-03-17T05:55:54;4.00;99.90
57108;DHT22;42987;52.916;6.542;2024-03-17T05:58:20;4.10;99.90
57108;DHT22;42987;52.916;6.542;2024-03-17T06:00:46;4.10;99.90
57108;DHT22;42987;52.916;6.542;2024-03-17T06:03:12;4.20;99.90
57108;DHT22;42987;52.916;6.542;2024-03-17T06:05:39;4.10;99.90
57108;DHT22;42987;52.916;6.542;2024-03-17T06:08:08;4.20;99.90
57108;DHT22;42987;52.916;6.542;2024-03-17T06:10:36;4.10;99.90
57108;DHT22;42987;52.916;6.542;2024-03-17T06:13:02;4.30;99.90
57108;DHT22;42987;52.916;6.542;2024-03-17T06:15:28;4.30;99.90
57108;DHT22;42987;52.916;6.542;2024-03-17T06:17:54;4.40;99.90
57108;DHT22;42987;52.916;6.542;2024-03-17T06:20:22;4.40;99.90
57108;DHT22;42987;52.916;6.542;2024-03-17T06:22:50;4.40;99.90
57108;DHT22;42987;52.916;6.542;2024-03-17T06:25:16;4.40;99.90
57108;DHT22;42987;52.916;6.542;2024-03-17T06:27:42;4.50;99.90
57108;DHT22;42987;52.916;6.542;2024-03-17T06:30:13;4.60;99.90
57108;DHT22;42987;52.916;6.542;2024-03-17T06:32:42;4.60;99.90
57108;DHT22;42987;52.916;6.542;2024-03-17T06:35:11;4.70;99.90
57108;DHT22;42987;52.916;6.542;2024-03-17T06:37:37;4.70;99.90
57108;DHT22;42987;52.916;6.542;2024-03-17T06:40:04;4.70;99.90
57108;DHT22;42987;52.916;6.542;2024-03-17T06:42:31;4.90;99.90
57108;DHT22;42987;52.916;6.542;2024-03-17T06:44:57;5.00;99.90
57108;DHT22;42987;52.916;6.542;2024-03-17T06:47:23;5.00;99.90
57108;DHT22;42987;52.916;6.542;2024-03-17T06:49:51;5.10;99.90
57108;DHT22;42987;52.916;6.542;2024-03-17T06:52:17;5.10;99.90
57108;DHT22;42987;52.916;6.542;2024-03-17T06:54:42;5.20;99.90
57108;DHT22;42987;52.916;6.542;2024-03-17T06:57:08;5.20;99.90
57108;DHT22;42987;52.916;6.542;2024-03-17T06:59:34;5.30;99.90
57108;DHT22;42987;52.916;6.542;2024-03-17T07:02:00;5.30;99.90
57108;DHT22;42987;52.916;6.542;2024-03-17T07:04:26;5.30;99.90
57108;DHT22;42987;52.916;6.542;2024-03-17T07:06:52;5.30;99.90
57108;DHT22;42987;52.916;6.542;2024-03-17T07:09:18;5.40;99.90
57108;DHT22;42987;52.916;6.542;2024-03-17T07:11:44;5.40;99.90
57108;DHT22;42987;52.916;6.542;2024-03-17T07:14:10;5.50;99.90
57108;DHT22;42987;52.916;6.542;2024-03-17T07:16:36;5.60;99.90
57108;DHT22;42987;52.916;6.542;2024-03-17T07:19:02;5.60;99.90
57108;DHT22;42987;52.916;6.542;2024-03-17T07:21:31;5.70;99.90
57108;DHT22;42987;52.916;6.542;2024-03-17T07:24:00;5.80;99.90
57108;DHT22;42987;52.916;6.542;2024-03-17T07:26:30;5.80;99.90
57108;DHT22;42987;52.916;6.542;2024-03-17T07:28:56;5.90;99.90
57108;DHT22;42987;52.916;6.542;2024-03-17T07:31:22;6.00;99.90
57108;DHT22;42987;52.916;6.542;2024-03-17T07:33:47;6.10;99.90
57108;DHT22;42987;52.916;6.542;2024-03-17T07:36:14;6.20;99.90
57108;DHT22;42987;52.916;6.542;2024-03-17T07:38:40;6.20;99.90
57108;DHT22;42987;52.916;6.542;2024-03-17T07:41:07;6.20;99.90
57108;DHT22;42987;52.916;6.542;2024-03-17T07:43:36;6.30;99.90
57108;DHT22;42987;52.916;6.542;2024-03-17T07:46:04;6.50;99.90
57108;DHT22;42987;52.916;6.542;2024-03-17T07:48:32;6.40;99.90
57108;DHT22;42987;52.916;6.542;2024-03-17T07:50:59;6.50;99.90
57108;DHT22;42987;52.916;6.542;2024-03-17T07:53:45;6.50;99.90
57108;DHT22;42987;52.916;6.542;2024-03-17T07:56:14;6.60;99.90
57108;DHT22;42987;52.916;6.542;2024-03-17T07:58:42;6.60;99.90
57108;DHT22;42987;52.916;6.542;2024-03-17T08:01:12;6.70;99.90
57108;DHT22;42987;52.916;6.542;2024-03-17T08:03:39;6.80;99.90
57108;DHT22;42987;52.916;6.542;2024-03-17T08:06:06;6.80;99.90
57108;DHT22;42987;52.916;6.542;2024-03-17T08:08:33;6.80;99.90
57108;DHT22;42987;52.916;6.542;2024-03-17T08:10:59;6.90;99.90
57108;DHT22;42987;52.916;6.542;2024-03-17T08:13:25;7.00;99.90
57108;DHT22;42987;52.916;6.542;2024-03-17T08:15:58;7.00;99.90
57108;DHT22;42987;52.916;6.542;2024-03-17T08:18:25;7.10;99.90
57108;DHT22;42987;52.916;6.542;2024-03-17T08:20:52;7.10;99.90
57108;DHT22;42987;52.916;6.542;2024-03-17T08:23:20;7.20;99.90
57108;DHT22;42987;52.916;6.542;2024-03-17T08:25:59;7.10;99.90
57108;DHT22;42987;52.916;6.542;2024-03-17T08:28:26;7.20;99.90
57108;DHT22;42987;52.916;6.542;2024-03-17T08:30:53;7.20;99.90
57108;DHT22;42987;52.916;6.542;2024-03-17T08:33:19;7.30;99.90
57108;DHT22;42987;52.916;6.542;2024-03-17T08:35:58;7.30;99.90
57108;DHT22;42987;52.916;6.542;2024-03-17T08:38:25;7.40;99.90
57108;DHT22;42987;52.916;6.542;2024-03-17T08:40:53;7.40;99.90
57108;DHT22;42987;52.916;6.542;2024-03-17T08:43:20;7.50;99.90
57108;DHT22;42987;52.916;6.542;2024-03-17T08:46:00;7.60;99.90
57108;DHT22;42987;52.916;6.542;2024-03-17T08:48:32;7.80;99.90
57108;DHT22;42987;52.916;6.542;2024-03-17T08:50:59;7.80;99.90
57108;DHT22;42987;52.916;6.542;2024-03-17T08:53:25;8.00;99.90
57108;DHT22;42987;52.916;6.542;2024-03-17T08:55:55;8.10;99.90
57108;DHT22;42987;52.916;6.542;2024-03-17T08:58:22;8.20;99.90
57108;DHT22;42987;52.916;6.542;2024-03-17T09:00:48;8.30;99.90
57108;DHT22;42987;52.916;6.542;2024-03-17T09:03:14;8.40;99.90
57108;DHT22;42987;52.916;6.542;2024-03-17T09:05:42;8.40;99.90
57108;DHT22;42987;52.916;6.542;2024-03-17T09:08:19;8.40;99.90
57108;DHT22;42987;52.916;6.542;2024-03-17T09:10:48;8.40;99.90
57108;DHT22;42987;52.916;6.542;2024-03-17T09:13:19;8.40;99.90
57108;DHT22;42987;52.916;6.542;2024-03-17T09:18:19;8.40;99.90
57108;DHT22;42987;52.916;6.542;2024-03-17T09:20:46;8.40;99.90
57108;DHT22;42987;52.916;6.542;2024-03-17T09:23:12;8.60;99.90
57108;DHT22;42987;52.916;6.542;2024-03-17T09:25:39;8.70;99.90
57108;DHT22;42987;52.916;6.542;2024-03-17T09:28:05;8.70;99.90
57108;DHT22;42987;52.916;6.542;2024-03-17T09:30:31;8.90;99.90
57108;DHT22;42987;52.916;6.542;2024-03-17T09:32:57;9.00;99.90
57108;DHT22;42987;52.916;6.542;2024-03-17T09:35:22;9.20;99.90
57108;DHT22;42987;52.916;6.542;2024-03-17T09:37:48;9.50;99.90
57108;DHT22;42987;52.916;6.542;2024-03-17T09:40:14;9.60;99.90
57108;DHT22;42987;52.916;6.542;2024-03-17T09:42:41;9.80;99.90
57108;DHT22;42987;52.916;6.542;2024-03-17T09:45:10;9.90;99.90
57108;DHT22;42987;52.916;6.542;2024-03-17T09:47:36;10.00;99.90
57108;DHT22;42987;52.916;6.542;2024-03-17T09:50:02;10.00;99.90
57108;DHT22;42987;52.916;6.542;2024-03-17T09:52:29;10.00;99.90
57108;DHT22;42987;52.916;6.542;2024-03-17T09:55:00;10.10;99.90
57108;DHT22;42987;52.916;6.542;2024-03-17T09:57:27;10.10;99.90
57108;DHT22;42987;52.916;6.542;2024-03-17T09:59:54;10.20;99.90
57108;DHT22;42987;52.916;6.542;2024-03-17T10:02:21;10.20;99.90
57108;DHT22;42987;52.916;6.542;2024-03-17T10:04:48;10.20;99.90
57108;DHT22;42987;52.916;6.542;2024-03-17T10:07:14;10.10;99.90
57108;DHT22;42987;52.916;6.542;2024-03-17T10:09:42;10.10;99.90
57108;DHT22;42987;52.916;6.542;2024-03-17T10:12:29;10.10;99.90
57108;DHT22;42987;52.916;6.542;2024-03-17T10:14:59;10.10;99.90
57108;DHT22;42987;52.916;6.542;2024-03-17T10:17:32;10.10;99.90
57108;DHT22;42987;52.916;6.542;2024-03-17T10:23:05;10.10;99.90
57108;DHT22;42987;52.916;6.542;2024-03-17T10:25:38;10.10;99.90
57108;DHT22;42987;52.916;6.542;2024-03-17T10:28:11;10.10;99.90
57108;DHT22;42987;52.916;6.542;2024-03-17T10:30:37;10.20;99.90
57108;DHT22;42987;52.916;6.542;2024-03-17T10:33:03;10.20;99.90
57108;DHT22;42987;52.916;6.542;2024-03-17T10:35:31;10.30;99.90
57108;DHT22;42987;52.916;6.542;2024-03-17T10:37:59;10.30;99.90
57108;DHT22;42987;52.916;6.542;2024-03-17T10:40:26;10.30;99.90
57108;DHT22;42987;52.916;6.542;2024-03-17T10:42:54;10.30;99.90
57108;DHT22;42987;52.916;6.542;2024-03-17T10:45:20;10.30;99.90
57108;DHT22;42987;52.916;6.542;2024-03-17T10:47:51;10.30;99.90
57108;DHT22;42987;52.916;6.542;2024-03-17T10:50:19;10.40;99.90
57108;DHT22;42987;52.916;6.542;2024-03-17T10:52:47;10.30;99.90
57108;DHT22;42987;52.916;6.542;2024-03-17T10:55:26;10.30;99.90
57108;DHT22;42987;52.916;6.542;2024-03-17T10:57:53;10.30;99.90
57108;DHT22;42987;52.916;6.542;2024-03-17T11:00:22;10.30;99.90
57108;DHT22;42987;52.916;6.542;2024-03-17T11:02:54;10.20;99.90
57108;DHT22;42987;52.916;6.542;2024-03-17T11:05:27;10.30;99.90
57108;DHT22;42987;52.916;6.542;2024-03-17T11:07:59;10.30;99.90
57108;DHT22;42987;52.916;6.542;2024-03-17T11:10:30;10.30;99.90
57108;DHT22;42987;52.916;6.542;2024-03-17T11:12:57;10.40;99.90
57108;DHT22;42987;52.916;6.542;2024-03-17T11:21:24;10.40;99.90
57108;DHT22;42987;52.916;6.542;2024-03-17T11:23:59;10.50;99.90
57108;DHT22;42987;52.916;6.542;2024-03-17T11:26:32;10.50;99.90
57108;DHT22;42987;52.916;6.542;2024-03-17T11:28:59;10.50;99.90
57108;DHT22;42987;52.916;6.542;2024-03-17T11:31:40;10.60;99.90
57108;DHT22;42987;52.916;6.542;2024-03-17T11:34:25;10.50;99.90
57108;DHT22;42987;52.916;6.542;2024-03-17T11:36:52;10.60;99.90
57108;DHT22;42987;52.916;6.542;2024-03-17T11:39:19;10.60;99.90
57108;DHT22;42987;52.916;6.542;2024-03-17T11:41:54;10.70;99.90
57108;DHT22;42987;52.916;6.542;2024-03-17T11:46:52;10.80;99.90
57108;DHT22;42987;52.916;6.542;2024-03-17T11:49:21;10.80;99.90
57108;DHT22;42987;52.916;6.542;2024-03-17T11:51:52;10.80;99.90
57108;DHT22;42987;52.916;6.542;2024-03-17T11:54:20;10.90;99.90
57108;DHT22;42987;52.916;6.542;2024-03-17T11:56:48;10.90;99.90
57108;DHT22;42987;52.916;6.542;2024-03-17T11:59:15;10.90;99.90
57108;DHT22;42987;52.916;6.542;2024-03-17T12:01:47;11.00;99.90
57108;DHT22;42987;52.916;6.542;2024-03-17T12:04:17;11.10;99.90
57108;DHT22;42987;52.916;6.542;2024-03-17T12:06:45;11.10;99.90
57108;DHT22;42987;52.916;6.542;2024-03-17T12:09:27;11.20;99.90
57108;DHT22;42987;52.916;6.542;2024-03-17T12:12:11;11.20;99.90
57108;DHT22;42987;52.916;6.542;2024-03-17T12:14:41;11.30;99.90
57108;DHT22;42987;52.916;6.542;2024-03-17T12:17:08;11.30;99.90
57108;DHT22;42987;52.916;6.542;2024-03-17T12:19:38;11.30;99.90
57108;DHT22;42987;52.916;6.542;2024-03-17T12:22:05;11.40;99.90
57108;DHT22;42987;52.916;6.542;2024-03-17T12:24:33;11.40;99.90
57108;DHT22;42987;52.916;6.542;2024-03-17T12:27:00;11.40;99.90
57108;DHT22;42987;52.916;6.542;2024-03-17T12:29:29;11.40;99.90
57108;DHT22;42987;52.916;6.542;2024-03-17T12:32:03;11.40;99.90
57108;DHT22;42987;52.916;6.542;2024-03-17T12:34:31;11.40;99.90
57108;DHT22;42987;52.916;6.542;2024-03-17T12:36:58;11.40;99.90
57108;DHT22;42987;52.916;6.542;2024-03-17T12:39:32;11.40;99.90
57108;DHT22;42987;52.916;6.542;2024-03-17T12:44:33;11.40;99.90
57108;DHT22;42987;52.916;6.542;2024-03-17T12:47:03;11.50;99.90
57108;DHT22;42987;52.916;6.542;2024-03-17T12:49:30;11.40;99.90
57108;DHT22;42987;52.916;6.542;2024-03-17T12:51:56;11.50;99.90
57108;DHT22;42987;52.916;6.542;2024-03-17T12:54:26;11.50;99.90
57108;DHT22;42987;52.916;6.542;2024-03-17T12:57:04;11.50;99.90
57108;DHT22;42987;52.916;6.542;2024-03-17T12:59:48;11.60;99.90
57108;DHT22;42987;52.916;6.542;2024-03-17T13:02:32;11.60;99.90
57108;DHT22;42987;52.916;6.542;2024-03-17T13:07:37;11.70;99.90
57108;DHT22;42987;52.916;6.542;2024-03-17T13:10:03;11.70;99.90
57108;DHT22;42987;52.916;6.542;2024-03-17T13:12:29;11.70;99.90
57108;DHT22;42987;52.916;6.542;2024-03-17T13:14:55;11.70;99.90
57108;DHT22;42987;52.916;6.542;2024-03-17T13:17:21;11.80;99.90
57108;DHT22;42987;52.916;6.542;2024-03-17T13:19:48;11.80;99.90
57108;DHT22;42987;52.916;6.542;2024-03-17T13:22:13;11.80;99.90
57108;DHT22;42987;52.916;6.542;2024-03-17T13:24:39;11.80;99.90
57108;DHT22;42987;52.916;6.542;2024-03-17T13:27:06;11.80;99.90
57108;DHT22;42987;52.916;6.542;2024-03-17T13:29:36;11.80;99.90
57108;DHT22;42987;52.916;6.542;2024-03-17T13:32:06;11.80;99.90
57108;DHT22;42987;52.916;6.542;2024-03-17T13:34:33;11.70;99.90
57108;DHT22;42987;52.916;6.542;2024-03-17T13:36:58;11.70;99.90
57108;DHT22;42987;52.916;6.542;2024-03-17T13:39:30;11.70;99.90
57108;DHT22;42987;52.916;6.542;2024-03-17T13:42:00;11.70;99.90
57108;DHT22;42987;52.916;6.542;2024-03-17T13:44:32;11.70;99.90
57108;DHT22;42987;52.916;6.542;2024-03-17T13:46:59;11.70;99.90
57108;DHT22;42987;52.916;6.542;2024-03-17T13:49:27;11.70;99.90
57108;DHT22;42987;52.916;6.542;2024-03-17T13:51:54;11.60;99.90
57108;DHT22;42987;52.916;6.542;2024-03-17T13:54:20;11.60;99.90
57108;DHT22;42987;52.916;6.542;2024-03-17T13:56:49;11.60;99.90
57108;DHT22;42987;52.916;6.542;2024-03-17T13:59:15;11.60;99.90
57108;DHT22;42987;52.916;6.542;2024-03-17T14:01:43;11.60;99.90
57108;DHT22;42987;52.916;6.542;2024-03-17T14:04:16;11.60;99.90
57108;DHT22;42987;52.916;6.542;2024-03-17T14:06:46;11.60;99.90
57108;DHT22;42987;52.916;6.542;2024-03-17T14:09:15;11.60;99.90
57108;DHT22;42987;52.916;6.542;2024-03-17T14:11:43;11.60;99.90
57108;DHT22;42987;52.916;6.542;2024-03-17T14:14:10;11.60;99.90
57108;DHT22;42987;52.916;6.542;2024-03-17T14:16:36;11.60;99.90
57108;DHT22;42987;52.916;6.542;2024-03-17T14:19:02;11.50;99.90
57108;DHT22;42987;52.916;6.542;2024-03-17T14:21:28;11.50;99.90
57108;DHT22;42987;52.916;6.542;2024-03-17T14:23:54;11.50;99.90
57108;DHT22;42987;52.916;6.542;2024-03-17T14:26:21;11.60;99.90
57108;DHT22;42987;52.916;6.542;2024-03-17T14:28:50;11.60;99.90
57108;DHT22;42987;52.916;6.542;2024-03-17T14:31:17;11.50;99.90
57108;DHT22;42987;52.916;6.542;2024-03-17T14:33:43;11.50;99.90
57108;DHT22;42987;52.916;6.542;2024-03-17T14:36:09;11.50;99.90
57108;DHT22;42987;52.916;6.542;2024-03-17T14:38:35;11.50;99.90
57108;DHT22;42987;52.916;6.542;2024-03-17T14:41:01;11.50;99.90
57108;DHT22;42987;52.916;6.542;2024-03-17T14:43:30;11.50;99.90
57108;DHT22;42987;52.916;6.542;2024-03-17T14:45:56;11.50;99.90
57108;DHT22;42987;52.916;6.542;2024-03-17T14:48:22;11.40;99.90
57108;DHT22;42987;52.916;6.542;2024-03-17T14:50:49;11.40;99.90
57108;DHT22;42987;52.916;6.542;2024-03-17T14:53:14;11.40;99.90
57108;DHT22;42987;52.916;6.542;2024-03-17T14:55:42;11.40;99.90
57108;DHT22;42987;52.916;6.542;2024-03-17T14:58:11;11.40;99.90
57108;DHT22;42987;52.916;6.542;2024-03-17T15:00:37;11.30;99.90
57108;DHT22;42987;52.916;6.542;2024-03-17T15:03:03;11.30;99.90
57108;DHT22;42987;52.916;6.542;2024-03-17T15:05:33;11.30;99.90
57108;DHT22;42987;52.916;6.542;2024-03-17T15:07:59;11.30;99.90
57108;DHT22;42987;52.916;6.542;2024-03-17T15:10:24;11.30;99.90
57108;DHT22;42987;52.916;6.542;2024-03-17T15:12:51;11.30;99.90
57108;DHT22;42987;52.916;6.542;2024-03-17T15:15:16;11.30;99.90
57108;DHT22;42987;52.916;6.542;2024-03-17T15:17:43;11.30;99.90
57108;DHT22;42987;52.916;6.542;2024-03-17T15:20:10;11.30;99.90
57108;DHT22;42987;52.916;6.542;2024-03-17T15:22:46;11.30;99.90
57108;DHT22;42987;52.916;6.542;2024-03-17T15:25:13;11.30;99.90
57108;DHT22;42987;52.916;6.542;2024-03-17T15:27:42;11.30;99.90
57108;DHT22;42987;52.916;6.542;2024-03-17T15:30:14;11.30;99.90
57108;DHT22;42987;52.916;6.542;2024-03-17T15:32:41;11.30;99.90
57108;DHT22;42987;52.916;6.542;2024-03-17T15:35:10;11.30;99.90
57108;DHT22;42987;52.916;6.542;2024-03-17T15:37:36;11.30;99.90
57108;DHT22;42987;52.916;6.542;2024-03-17T15:40:02;11.30;99.90
57108;DHT22;42987;52.916;6.542;2024-03-17T15:42:28;11.20;99.90
57108;DHT22;42987;52.916;6.542;2024-03-17T15:44:54;11.30;99.90
57108;DHT22;42987;52.916;6.542;2024-03-17T15:47:19;11.30;99.90
57108;DHT22;42987;52.916;6.542;2024-03-17T15:49:46;11.30;99.90
57108;DHT22;42987;52.916;6.542;2024-03-17T15:52:15;11.30;99.90
57108;DHT22;42987;52.916;6.542;2024-03-17T15:54:40;11.20;99.90
57108;DHT22;42987;52.916;6.542;2024-03-17T15:57:06;11.30;99.90
57108;DHT22;42987;52.916;6.542;2024-03-17T15:59:32;11.20;99.90
57108;DHT22;42987;52.916;6.542;2024-03-17T16:02:00;11.20;99.90